Timestamp Temperature Pressure Humidity
2021-05-08 00:32:44 5.92 1014.11 66.57
2021-05-08 01:02:44 5.7 1014.06 67.47
2021-05-08 01:32:45 5.47 1014.01 67.88
2021-05-08 02:02:45 5.25 1013.93 68.43
2021-05-08 02:32:45 5.03 1013.83 69.2
2021-05-08 03:02:45 4.83 1013.7 69.83
2021-05-08 03:32:46 4.65 1013.54 68.48
2021-05-08 04:02:46 4.49 1013.35 68.52
2021-05-08 04:32:46 4.33 1013.13 68.03
2021-05-08 05:02:46 4.19 1012.89 67.81
2021-05-08 05:32:46 4.04 1012.62 68.09
2021-05-08 06:02:47 3.91 1012.35 69.04
2021-05-08 06:32:47 3.78 1012.04 70.21
2021-05-08 07:02:47 3.68 1011.7 71.88
2021-05-08 07:32:47 3.6 1011.34 71.52
2021-05-08 08:02:48 3.55 1010.94 70.77
2021-05-08 08:32:48 3.52 1010.52 70.68
2021-05-08 09:02:48 3.54 1010.1 68.91
2021-05-08 09:32:48 3.59 1009.65 67.17
2021-05-08 10:02:49 3.65 1009.2 67.72
2021-05-08 10:32:49 3.71 1008.74 72.83
2021-05-08 11:02:49 3.76 1008.25 75.6
2021-05-08 11:32:49 3.83 1007.72 76.52
2021-05-08 12:02:50 3.9 1007.16 75.16
2021-05-08 12:32:50 3.98 1006.59 74.67
2021-05-08 13:02:50 4.05 1006.02 75.29
2021-05-08 13:32:50 4.09 1005.45 78.14
2021-05-08 14:02:51 4.13 1004.9 79.65
2021-05-08 14:32:51 4.14 1004.36 79.88
2021-05-08 15:02:51 4.16 1003.82 80.74
2021-05-08 15:32:51 4.19 1003.3 80.88
2021-05-08 16:02:52 4.23 1002.78 81.31
2021-05-08 16:32:52 4.3 1002.28 80.52
2021-05-08 17:02:52 4.37 1001.79 81
2021-05-08 17:32:52 4.45 1001.33 81.74
2021-05-08 18:02:53 4.55 1000.9 82.3
2021-05-08 18:32:53 4.7 1000.48 82.26
2021-05-08 19:02:54 4.87 1000.07 81.71
2021-05-08 19:32:54 5.03 999.68 81.3
2021-05-08 20:02:54 5.17 999.32 81.27
2021-05-08 20:32:54 5.29 998.99 81.32
2021-05-08 21:02:55 5.38 998.69 81
2021-05-08 21:32:55 5.45 998.39 82.08
2021-05-08 22:02:55 5.5 998.1 82.61
2021-05-08 22:32:55 5.55 997.81 82.98
2021-05-08 23:02:56 5.61 997.54 84.08
2021-05-08 23:32:56 5.69 997.27 85.47
2021-05-09 00:02:56 5.79 997.01 86.18